sensor_id;sensor_type;location;lat;lon;timestamp;temperature;humidity
53053;DHT22;38934;52.690;6.184;2022-10-15T00:01:25;11.00;99.90
53053;DHT22;38934;52.690;6.184;2022-10-15T00:03:51;11.00;99.90
53053;DHT22;38934;52.690;6.184;2022-10-15T00:06:17;11.00;99.90
53053;DHT22;38934;52.690;6.184;2022-10-15T00:08:43;11.00;99.90
53053;DHT22;38934;52.690;6.184;2022-10-15T00:11:11;11.00;99.90
53053;DHT22;38934;52.690;6.184;2022-10-15T00:13:37;11.10;99.90
53053;DHT22;38934;52.690;6.184;2022-10-15T00:16:03;11.00;99.90
53053;DHT22;38934;52.690;6.184;2022-10-15T00:18:29;11.10;99.90
53053;DHT22;38934;52.690;6.184;2022-10-15T00:20:54;11.10;99.90
53053;DHT22;38934;52.690;6.184;2022-10-15T00:23:20;11.10;99.90
53053;DHT22;38934;52.690;6.184;2022-10-15T00:25:46;11.10;99.90
53053;DHT22;38934;52.690;6.184;2022-10-15T00:28:11;11.20;99.90
53053;DHT22;38934;52.690;6.184;2022-10-15T00:30:37;11.10;99.90
53053;DHT22;38934;52.690;6.184;2022-10-15T00:33:02;12.10;99.90
53053;DHT22;38934;52.690;6.184;2022-10-15T00:35:28;11.20;99.90
53053;DHT22;38934;52.690;6.184;2022-10-15T00:37:53;11.20;99.90
53053;DHT22;38934;52.690;6.184;2022-10-15T00:40:19;11.30;99.90
53053;DHT22;38934;52.690;6.184;2022-10-15T00:42:44;11.20;99.90
53053;DHT22;38934;52.690;6.184;2022-10-15T00:45:10;11.20;99.90
53053;DHT22;38934;52.690;6.184;2022-10-15T00:47:39;11.30;99.90
53053;DHT22;38934;52.690;6.184;2022-10-15T00:52:33;11.30;99.90
53053;DHT22;38934;52.690;6.184;2022-10-15T00:55:02;11.20;99.90
53053;DHT22;38934;52.690;6.184;2022-10-15T00:57:30;11.30;99.90
53053;DHT22;38934;52.690;6.184;2022-10-15T00:59:57;11.30;99.90
53053;DHT22;38934;52.690;6.184;2022-10-15T01:02:23;11.30;99.90
53053;DHT22;38934;52.690;6.184;2022-10-15T01:04:48;11.30;99.90
53053;DHT22;38934;52.690;6.184;2022-10-15T01:07:14;11.30;99.90
53053;DHT22;38934;52.690;6.184;2022-10-15T01:09:40;11.30;99.90
53053;DHT22;38934;52.690;6.184;2022-10-15T01:12:12;11.30;99.90
53053;DHT22;38934;52.690;6.184;2022-10-15T01:14:57;11.30;99.90
53053;DHT22;38934;52.690;6.184;2022-10-15T01:28:18;11.40;99.90
53053;DHT22;38934;52.690;6.184;2022-10-15T01:30:47;11.40;99.90
53053;DHT22;38934;52.690;6.184;2022-10-15T01:43:22;11.40;99.90
53053;DHT22;38934;52.690;6.184;2022-10-15T01:45:50;11.30;99.90
53053;DHT22;38934;52.690;6.184;2022-10-15T01:48:17;11.30;99.90
53053;DHT22;38934;52.690;6.184;2022-10-15T01:50:46;11.30;99.90
53053;DHT22;38934;52.690;6.184;2022-10-15T01:53:14;11.40;99.90
53053;DHT22;38934;52.690;6.184;2022-10-15T01:55:40;11.40;99.90
53053;DHT22;38934;52.690;6.184;2022-10-15T01:58:06;12.00;99.90
53053;DHT22;38934;52.690;6.184;2022-10-15T02:00:33;11.30;99.90
53053;DHT22;38934;52.690;6.184;2022-10-15T02:02:59;11.30;99.90
53053;DHT22;38934;52.690;6.184;2022-10-15T02:05:26;11.30;99.90
53053;DHT22;38934;52.690;6.184;2022-10-15T02:07:55;12.20;99.90
53053;DHT22;38934;52.690;6.184;2022-10-15T02:10:30;11.40;99.90
53053;DHT22;38934;52.690;6.184;2022-10-15T02:15:35;11.30;99.90
53053;DHT22;38934;52.690;6.184;2022-10-15T02:20:55;11.20;99.90
53053;DHT22;38934;52.690;6.184;2022-10-15T02:25:51;11.20;99.90
53053;DHT22;38934;52.690;6.184;2022-10-15T02:28:17;11.20;99.90
53053;DHT22;38934;52.690;6.184;2022-10-15T02:30:44;11.50;99.90
53053;DHT22;38934;52.690;6.184;2022-10-15T02:33:10;11.20;99.90
53053;DHT22;38934;52.690;6.184;2022-10-15T02:35:36;11.20;99.90
53053;DHT22;38934;52.690;6.184;2022-10-15T02:38:03;11.20;99.90
53053;DHT22;38934;52.690;6.184;2022-10-15T02:40:31;11.30;99.90
53053;DHT22;38934;52.690;6.184;2022-10-15T02:42:58;11.20;99.90
53053;DHT22;38934;52.690;6.184;2022-10-15T02:45:24;11.20;99.90
53053;DHT22;38934;52.690;6.184;2022-10-15T02:47:49;11.30;99.90
53053;DHT22;38934;52.690;6.184;2022-10-15T02:50:16;11.20;99.90
53053;DHT22;38934;52.690;6.184;2022-10-15T02:52:41;11.20;99.90
53053;DHT22;38934;52.690;6.184;2022-10-15T02:55:07;11.30;99.90
53053;DHT22;38934;52.690;6.184;2022-10-15T02:57:33;11.20;99.90
53053;DHT22;38934;52.690;6.184;2022-10-15T02:59:58;11.20;99.90
53053;DHT22;38934;52.690;6.184;2022-10-15T03:02:24;11.20;99.90
53053;DHT22;38934;52.690;6.184;2022-10-15T03:04:49;11.70;99.90
53053;DHT22;38934;52.690;6.184;2022-10-15T03:07:15;11.10;99.90
53053;DHT22;38934;52.690;6.184;2022-10-15T03:09:41;11.10;99.90
53053;DHT22;38934;52.690;6.184;2022-10-15T03:12:06;11.00;99.90
53053;DHT22;38934;52.690;6.184;2022-10-15T03:14:32;11.00;99.90
53053;DHT22;38934;52.690;6.184;2022-10-15T03:16:58;11.80;99.90
53053;DHT22;38934;52.690;6.184;2022-10-15T03:19:23;11.00;99.90
53053;DHT22;38934;52.690;6.184;2022-10-15T03:21:49;10.90;99.90
53053;DHT22;38934;52.690;6.184;2022-10-15T03:24:15;10.90;99.90
53053;DHT22;38934;52.690;6.184;2022-10-15T03:26:40;10.90;99.90
53053;DHT22;38934;52.690;6.184;2022-10-15T03:29:06;10.80;99.90
53053;DHT22;38934;52.690;6.184;2022-10-15T03:31:31;10.90;99.90
53053;DHT22;38934;52.690;6.184;2022-10-15T03:33:57;10.90;99.90
53053;DHT22;38934;52.690;6.184;2022-10-15T03:36:23;10.90;99.90
53053;DHT22;38934;52.690;6.184;2022-10-15T03:38:48;10.90;99.90
53053;DHT22;38934;52.690;6.184;2022-10-15T03:41:14;10.80;99.90
53053;DHT22;38934;52.690;6.184;2022-10-15T03:43:39;10.90;99.90
53053;DHT22;38934;52.690;6.184;2022-10-15T03:46:05;10.90;99.90
53053;DHT22;38934;52.690;6.184;2022-10-15T03:48:30;10.90;99.90
53053;DHT22;38934;52.690;6.184;2022-10-15T03:50:56;10.90;99.90
53053;DHT22;38934;52.690;6.184;2022-10-15T03:53:22;10.90;99.90
53053;DHT22;38934;52.690;6.184;2022-10-15T03:55:47;10.90;99.90
53053;DHT22;38934;52.690;6.184;2022-10-15T03:58:13;11.00;99.90
53053;DHT22;38934;52.690;6.184;2022-10-15T04:00:42;11.00;99.90
53053;DHT22;38934;52.690;6.184;2022-10-15T04:03:07;11.00;99.90
53053;DHT22;38934;52.690;6.184;2022-10-15T04:05:33;11.50;99.90
53053;DHT22;38934;52.690;6.184;2022-10-15T04:07:59;11.00;99.90
53053;DHT22;38934;52.690;6.184;2022-10-15T04:10:24;11.00;99.90
53053;DHT22;38934;52.690;6.184;2022-10-15T04:12:50;11.00;99.90
53053;DHT22;38934;52.690;6.184;2022-10-15T04:15:16;11.10;99.90
53053;DHT22;38934;52.690;6.184;2022-10-15T04:17:42;11.10;99.90
53053;DHT22;38934;52.690;6.184;2022-10-15T04:20:08;11.10;99.90
53053;DHT22;38934;52.690;6.184;2022-10-15T04:22:35;11.10;99.90
53053;DHT22;38934;52.690;6.184;2022-10-15T04:25:00;11.60;99.90
53053;DHT22;38934;52.690;6.184;2022-10-15T04:27:26;11.00;99.90
53053;DHT22;38934;52.690;6.184;2022-10-15T04:29:51;11.00;99.90
53053;DHT22;38934;52.690;6.184;2022-10-15T04:32:17;10.90;99.90
53053;DHT22;38934;52.690;6.184;2022-10-15T04:34:42;10.90;99.90
53053;DHT22;38934;52.690;6.184;2022-10-15T04:37:09;10.90;99.90
53053;DHT22;38934;52.690;6.184;2022-10-15T04:39:35;10.90;99.90
53053;DHT22;38934;52.690;6.184;2022-10-15T04:42:02;10.90;99.90
53053;DHT22;38934;52.690;6.184;2022-10-15T04:44:28;10.90;99.90
53053;DHT22;38934;52.690;6.184;2022-10-15T04:46:54;10.90;99.90
53053;DHT22;38934;52.690;6.184;2022-10-15T04:49:19;10.90;99.90
53053;DHT22;38934;52.690;6.184;2022-10-15T04:51:45;10.90;99.90
53053;DHT22;38934;52.690;6.184;2022-10-15T04:54:10;10.90;99.90
53053;DHT22;38934;52.690;6.184;2022-10-15T04:56:36;11.00;99.90
53053;DHT22;38934;52.690;6.184;2022-10-15T04:59:05;11.00;99.90
53053;DHT22;38934;52.690;6.184;2022-10-15T05:01:31;11.00;99.90
53053;DHT22;38934;52.690;6.184;2022-10-15T05:03:56;11.00;99.90
53053;DHT22;38934;52.690;6.184;2022-10-15T05:06:21;11.10;99.90
53053;DHT22;38934;52.690;6.184;2022-10-15T05:08:48;11.10;99.90
53053;DHT22;38934;52.690;6.184;2022-10-15T05:11:21;11.10;99.90
53053;DHT22;38934;52.690;6.184;2022-10-15T05:13:46;11.10;99.90
53053;DHT22;38934;52.690;6.184;2022-10-15T05:18:38;11.20;99.90
53053;DHT22;38934;52.690;6.184;2022-10-15T05:21:04;11.20;99.90
53053;DHT22;38934;52.690;6.184;2022-10-15T05:23:29;11.30;99.90
53053;DHT22;38934;52.690;6.184;2022-10-15T05:25:58;11.90;99.90
53053;DHT22;38934;52.690;6.184;2022-10-15T05:28:23;11.20;99.90
53053;DHT22;38934;52.690;6.184;2022-10-15T05:30:49;11.30;99.90
53053;DHT22;38934;52.690;6.184;2022-10-15T05:33:14;11.30;99.90
53053;DHT22;38934;52.690;6.184;2022-10-15T05:35:41;11.30;99.90
53053;DHT22;38934;52.690;6.184;2022-10-15T05:38:08;11.30;99.90
53053;DHT22;38934;52.690;6.184;2022-10-15T05:40:34;11.30;99.90
53053;DHT22;38934;52.690;6.184;2022-10-15T05:42:59;11.30;99.90
53053;DHT22;38934;52.690;6.184;2022-10-15T05:45:25;11.30;99.90
53053;DHT22;38934;52.690;6.184;2022-10-15T05:47:54;11.30;99.90
53053;DHT22;38934;52.690;6.184;2022-10-15T05:50:20;11.30;99.90
53053;DHT22;38934;52.690;6.184;2022-10-15T05:52:46;11.40;99.90
53053;DHT22;38934;52.690;6.184;2022-10-15T05:55:12;11.30;99.90
53053;DHT22;38934;52.690;6.184;2022-10-15T05:57:37;11.40;99.90
53053;DHT22;38934;52.690;6.184;2022-10-15T06:00:06;11.40;99.90
53053;DHT22;38934;52.690;6.184;2022-10-15T06:02:32;11.40;99.90
53053;DHT22;38934;52.690;6.184;2022-10-15T06:04:58;11.40;99.90
53053;DHT22;38934;52.690;6.184;2022-10-15T06:07:24;11.40;99.90
53053;DHT22;38934;52.690;6.184;2022-10-15T06:09:50;11.50;99.90
53053;DHT22;38934;52.690;6.184;2022-10-15T06:12:16;11.50;99.90
53053;DHT22;38934;52.690;6.184;2022-10-15T06:14:42;11.50;99.90
53053;DHT22;38934;52.690;6.184;2022-10-15T06:17:07;11.50;99.90
53053;DHT22;38934;52.690;6.184;2022-10-15T06:19:33;11.50;99.90
53053;DHT22;38934;52.690;6.184;2022-10-15T06:21:59;11.50;99.90
53053;DHT22;38934;52.690;6.184;2022-10-15T06:24:24;11.50;99.90
53053;DHT22;38934;52.690;6.184;2022-10-15T06:26:49;11.50;99.90
53053;DHT22;38934;52.690;6.184;2022-10-15T06:29:15;11.60;99.90
53053;DHT22;38934;52.690;6.184;2022-10-15T06:31:40;11.60;99.90
53053;DHT22;38934;52.690;6.184;2022-10-15T06:34:06;11.90;99.90
53053;DHT22;38934;52.690;6.184;2022-10-15T06:36:32;11.60;99.90
53053;DHT22;38934;52.690;6.184;2022-10-15T06:38:57;11.60;99.90
53053;DHT22;38934;52.690;6.184;2022-10-15T06:41:23;11.60;99.90
53053;DHT22;38934;52.690;6.184;2022-10-15T06:43:48;11.60;99.90
53053;DHT22;38934;52.690;6.184;2022-10-15T06:46:14;11.60;99.90
53053;DHT22;38934;52.690;6.184;2022-10-15T06:48:40;12.00;99.90
53053;DHT22;38934;52.690;6.184;2022-10-15T06:51:14;11.90;99.90
53053;DHT22;38934;52.690;6.184;2022-10-15T06:53:40;11.60;99.90
53053;DHT22;38934;52.690;6.184;2022-10-15T06:56:08;11.60;99.90
53053;DHT22;38934;52.690;6.184;2022-10-15T06:58:34;11.60;99.90
53053;DHT22;38934;52.690;6.184;2022-10-15T07:01:00;11.60;99.90
53053;DHT22;38934;52.690;6.184;2022-10-15T07:03:25;12.50;99.90
53053;DHT22;38934;52.690;6.184;2022-10-15T07:05:51;12.40;99.90
53053;DHT22;38934;52.690;6.184;2022-10-15T07:08:20;11.60;99.90
53053;DHT22;38934;52.690;6.184;2022-10-15T07:10:50;11.60;99.90
53053;DHT22;38934;52.690;6.184;2022-10-15T07:13:16;11.60;99.90
53053;DHT22;38934;52.690;6.184;2022-10-15T07:15:42;11.50;99.90
53053;DHT22;38934;52.690;6.184;2022-10-15T07:18:08;11.50;99.90
53053;DHT22;38934;52.690;6.184;2022-10-15T07:20:34;11.80;99.90
53053;DHT22;38934;52.690;6.184;2022-10-15T07:23:00;11.50;99.90
53053;DHT22;38934;52.690;6.184;2022-10-15T07:25:26;11.60;99.90
53053;DHT22;38934;52.690;6.184;2022-10-15T07:27:52;11.60;99.90
53053;DHT22;38934;52.690;6.184;2022-10-15T07:30:20;11.90;99.90
53053;DHT22;38934;52.690;6.184;2022-10-15T07:32:45;12.20;99.90
53053;DHT22;38934;52.690;6.184;2022-10-15T07:35:12;11.60;99.90
53053;DHT22;38934;52.690;6.184;2022-10-15T07:40:07;11.80;99.90
53053;DHT22;38934;52.690;6.184;2022-10-15T07:42:34;11.70;99.90
53053;DHT22;38934;52.690;6.184;2022-10-15T07:45:03;11.80;99.90
53053;DHT22;38934;52.690;6.184;2022-10-15T07:47:35;11.90;99.90
53053;DHT22;38934;52.690;6.184;2022-10-15T07:50:07;11.90;99.90
53053;DHT22;38934;52.690;6.184;2022-10-15T07:52:33;12.00;99.90
53053;DHT22;38934;52.690;6.184;2022-10-15T07:54:59;12.00;99.90
53053;DHT22;38934;52.690;6.184;2022-10-15T07:57:25;12.10;99.90
53053;DHT22;38934;52.690;6.184;2022-10-15T07:59:51;12.10;99.90
53053;DHT22;38934;52.690;6.184;2022-10-15T08:02:17;12.20;99.90
53053;DHT22;38934;52.690;6.184;2022-10-15T08:04:43;12.20;99.90
53053;DHT22;38934;52.690;6.184;2022-10-15T08:07:09;12.30;99.90
53053;DHT22;38934;52.690;6.184;2022-10-15T08:09:35;12.40;99.90
53053;DHT22;38934;52.690;6.184;2022-10-15T08:12:02;12.30;99.90
53053;DHT22;38934;52.690;6.184;2022-10-15T08:14:30;12.30;99.90
53053;DHT22;38934;52.690;6.184;2022-10-15T08:16:55;12.40;99.90
53053;DHT22;38934;52.690;6.184;2022-10-15T08:19:20;12.40;99.90
53053;DHT22;38934;52.690;6.184;2022-10-15T08:21:47;13.20;99.90
53053;DHT22;38934;52.690;6.184;2022-10-15T08:24:15;12.50;99.90
53053;DHT22;38934;52.690;6.184;2022-10-15T08:26:42;12.50;99.90
53053;DHT22;38934;52.690;6.184;2022-10-15T08:29:08;12.50;99.90
53053;DHT22;38934;52.690;6.184;2022-10-15T08:34:34;12.50;99.90
53053;DHT22;38934;52.690;6.184;2022-10-15T08:37:10;12.50;99.90
53053;DHT22;38934;52.690;6.184;2022-10-15T08:39:38;12.60;99.90
53053;DHT22;38934;52.690;6.184;2022-10-15T08:42:04;12.60;99.90
53053;DHT22;38934;52.690;6.184;2022-10-15T08:44:37;13.60;99.90
53053;DHT22;38934;52.690;6.184;2022-10-15T08:50:04;12.60;99.90
53053;DHT22;38934;52.690;6.184;2022-10-15T09:00:57;12.80;99.90
53053;DHT22;38934;52.690;6.184;2022-10-15T09:05:58;12.80;99.90
53053;DHT22;38934;52.690;6.184;2022-10-15T09:08:32;12.90;99.90
53053;DHT22;38934;52.690;6.184;2022-10-15T09:13:57;13.00;99.90
53053;DHT22;38934;52.690;6.184;2022-10-15T09:16:26;13.00;99.90
53053;DHT22;38934;52.690;6.184;2022-10-15T09:24:37;13.30;99.90
53053;DHT22;38934;52.690;6.184;2022-10-15T09:29:49;13.50;99.90
53053;DHT22;38934;52.690;6.184;2022-10-15T09:35:14;13.70;99.90
53053;DHT22;38934;52.690;6.184;2022-10-15T09:42:51;13.80;99.90
53053;DHT22;38934;52.690;6.184;2022-10-15T09:45:17;13.80;99.90
53053;DHT22;38934;52.690;6.184;2022-10-15T09:47:45;13.90;99.90
53053;DHT22;38934;52.690;6.184;2022-10-15T09:50:13;14.00;99.90
53053;DHT22;38934;52.690;6.184;2022-10-15T09:57:53;14.10;99.90
53053;DHT22;38934;52.690;6.184;2022-10-15T10:00:19;14.50;99.90
53053;DHT22;38934;52.690;6.184;2022-10-15T10:03:02;14.70;99.90
53053;DHT22;38934;52.690;6.184;2022-10-15T10:05:29;14.20;99.90
53053;DHT22;38934;52.690;6.184;2022-10-15T10:08:06;14.40;99.90
53053;DHT22;38934;52.690;6.184;2022-10-15T10:10:35;14.40;99.90
53053;DHT22;38934;52.690;6.184;2022-10-15T10:13:01;14.40;99.90
53053;DHT22;38934;52.690;6.184;2022-10-15T10:15:30;15.70;99.90
53053;DHT22;38934;52.690;6.184;2022-10-15T10:21:01;14.70;99.90
53053;DHT22;38934;52.690;6.184;2022-10-15T10:23:34;14.80;99.90
53053;DHT22;38934;52.690;6.184;2022-10-15T10:26:07;15.10;99.90
53053;DHT22;38934;52.690;6.184;2022-10-15T10:28:45;14.80;99.90
53053;DHT22;38934;52.690;6.184;2022-10-15T10:31:11;14.70;99.90
53053;DHT22;38934;52.690;6.184;2022-10-15T10:33:52;14.70;99.90
53053;DHT22;38934;52.690;6.184;2022-10-15T10:36:24;14.60;99.90
53053;DHT22;38934;52.690;6.184;2022-10-15T10:38:54;14.60;99.90
53053;DHT22;38934;52.690;6.184;2022-10-15T10:41:21;14.70;99.90
53053;DHT22;38934;52.690;6.184;2022-10-15T10:43:54;14.70;99.90
53053;DHT22;38934;52.690;6.184;2022-10-15T10:55:19;15.10;99.90
53053;DHT22;38934;52.690;6.184;2022-10-15T10:57:49;15.20;99.90
53053;DHT22;38934;52.690;6.184;2022-10-15T11:02:59;15.20;99.90
53053;DHT22;38934;52.690;6.184;2022-10-15T11:05:33;16.00;99.90
53053;DHT22;38934;52.690;6.184;2022-10-15T11:08:09;15.20;99.90
53053;DHT22;38934;52.690;6.184;2022-10-15T11:10:46;15.10;99.90
53053;DHT22;38934;52.690;6.184;2022-10-15T11:27:08;15.00;99.90
53053;DHT22;38934;52.690;6.184;2022-10-15T11:32:50;15.00;99.90
53053;DHT22;38934;52.690;6.184;2022-10-15T11:46:20;15.40;99.90
53053;DHT22;38934;52.690;6.184;2022-10-15T11:57:31;15.40;99.90
53053;DHT22;38934;52.690;6.184;2022-10-15T12:04:59;15.20;99.90
53053;DHT22;38934;52.690;6.184;2022-10-15T12:12:40;15.20;99.90
53053;DHT22;38934;52.690;6.184;2022-10-15T12:21:31;15.20;99.90
53053;DHT22;38934;52.690;6.184;2022-10-15T12:30:09;15.10;99.90
53053;DHT22;38934;52.690;6.184;2022-10-15T12:32:36;15.20;99.90
53053;DHT22;38934;52.690;6.184;2022-10-15T12:40:44;15.00;99.90
53053;DHT22;38934;52.690;6.184;2022-10-15T12:43:16;15.00;99.90
53053;DHT22;38934;52.690;6.184;2022-10-15T12:45:48;14.90;99.90
53053;DHT22;38934;52.690;6.184;2022-10-15T12:50:46;14.90;99.90
53053;DHT22;38934;52.690;6.184;2022-10-15T12:56:43;14.90;99.90
53053;DHT22;38934;52.690;6.184;2022-10-15T12:59:28;14.90;99.90
53053;DHT22;38934;52.690;6.184;2022-10-15T13:01:55;14.90;99.90
53053;DHT22;38934;52.690;6.184;2022-10-15T13:04:21;15.60;99.90
53053;DHT22;38934;52.690;6.184;2022-10-15T13:06:47;14.90;99.90
53053;DHT22;38934;52.690;6.184;2022-10-15T13:17:18;14.90;99.90
53053;DHT22;38934;52.690;6.184;2022-10-15T13:26:38;14.90;99.90
53053;DHT22;38934;52.690;6.184;2022-10-15T13:29:03;14.90;99.90
53053;DHT22;38934;52.690;6.184;2022-10-15T13:31:40;14.90;99.90
53053;DHT22;38934;52.690;6.184;2022-10-15T13:47:36;15.00;99.90
53053;DHT22;38934;52.690;6.184;2022-10-15T14:02:27;15.10;99.90
53053;DHT22;38934;52.690;6.184;2022-10-15T14:04:54;15.10;99.90
53053;DHT22;38934;52.690;6.184;2022-10-15T14:11:13;14.50;99.90
53053;DHT22;38934;52.690;6.184;2022-10-15T14:13:48;15.20;99.90
53053;DHT22;38934;52.690;6.184;2022-10-15T14:16:23;15.20;99.90
53053;DHT22;38934;52.690;6.184;2022-10-15T14:18:51;15.20;99.90
53053;DHT22;38934;52.690;6.184;2022-10-15T14:21:18;15.30;99.90
53053;DHT22;38934;52.690;6.184;2022-10-15T14:23:45;15.30;99.90
53053;DHT22;38934;52.690;6.184;2022-10-15T14:26:11;15.40;99.90
53053;DHT22;38934;52.690;6.184;2022-10-15T14:28:38;15.40;99.90
53053;DHT22;38934;52.690;6.184;2022-10-15T14:31:04;15.50;99.90
53053;DHT22;38934;52.690;6.184;2022-10-15T14:36:03;15.60;99.90
53053;DHT22;38934;52.690;6.184;2022-10-15T14:38:29;15.70;99.90
53053;DHT22;38934;52.690;6.184;2022-10-15T14:40:56;15.70;99.90
53053;DHT22;38934;52.690;6.184;2022-10-15T14:43:27;15.80;99.90
53053;DHT22;38934;52.690;6.184;2022-10-15T14:45:57;15.80;99.90
53053;DHT22;38934;52.690;6.184;2022-10-15T14:48:27;15.90;99.90
53053;DHT22;38934;52.690;6.184;2022-10-15T14:50:59;15.90;99.90
53053;DHT22;38934;52.690;6.184;2022-10-15T14:53:26;16.00;99.90
53053;DHT22;38934;52.690;6.184;2022-10-15T14:55:55;16.00;99.90
53053;DHT22;38934;52.690;6.184;2022-10-15T14:58:21;16.10;99.90
53053;DHT22;38934;52.690;6.184;2022-10-15T15:00:48;15.80;99.90
53053;DHT22;38934;52.690;6.184;2022-10-15T15:03:20;15.80;99.90
53053;DHT22;38934;52.690;6.184;2022-10-15T15:05:48;15.70;99.90
53053;DHT22;38934;52.690;6.184;2022-10-15T15:08:14;15.60;99.90
53053;DHT22;38934;52.690;6.184;2022-10-15T15:10:39;15.60;99.90
53053;DHT22;38934;52.690;6.184;2022-10-15T15:13:05;15.60;99.90
53053;DHT22;38934;52.690;6.184;2022-10-15T15:15:31;15.70;99.90
53053;DHT22;38934;52.690;6.184;2022-10-15T15:17:56;15.70;99.90
53053;DHT22;38934;52.690;6.184;2022-10-15T15:20:22;15.70;99.90
53053;DHT22;38934;52.690;6.184;2022-10-15T15:22:49;15.70;99.90
53053;DHT22;38934;52.690;6.184;2022-10-15T15:25:19;15.70;99.90
53053;DHT22;38934;52.690;6.184;2022-10-15T15:27:45;15.70;99.90
53053;DHT22;38934;52.690;6.184;2022-10-15T15:30:18;15.70;99.90
53053;DHT22;38934;52.690;6.184;2022-10-15T15:32:44;15.60;99.90
53053;DHT22;38934;52.690;6.184;2022-10-15T15:35:53;15.60;99.90
53053;DHT22;38934;52.690;6.184;2022-10-15T15:37:59;15.60;99.90
53053;DHT22;38934;52.690;6.184;2022-10-15T15:40:25;15.60;99.90
53053;DHT22;38934;52.690;6.184;2022-10-15T15:42:51;15.50;99.90
53053;DHT22;38934;52.690;6.184;2022-10-15T15:47:42;15.50;99.90
53053;DHT22;38934;52.690;6.184;2022-10-15T15:50:08;15.40;99.90
53053;DHT22;38934;52.690;6.184;2022-10-15T15:52:33;15.40;99.90
53053;DHT22;38934;52.690;6.184;2022-10-15T15:54:59;15.40;99.90
53053;DHT22;38934;52.690;6.184;2022-10-15T15:57:24;15.30;99.90
53053;DHT22;38934;52.690;6.184;2022-10-15T15:59:50;15.20;99.90
53053;DHT22;38934;52.690;6.184;2022-10-15T16:02:15;15.10;99.90
53053;DHT22;38934;52.690;6.184;2022-10-15T16:04:41;15.10;99.90
53053;DHT22;38934;52.690;6.184;2022-10-15T16:07:09;15.00;99.90
53053;DHT22;38934;52.690;6.184;2022-10-15T16:09:35;14.90;99.90
53053;DHT22;38934;52.690;6.184;2022-10-15T16:12:00;14.80;99.90
53053;DHT22;38934;52.690;6.184;2022-10-15T16:14:26;14.80;99.90
53053;DHT22;38934;52.690;6.184;2022-10-15T16:16:51;14.70;99.90
53053;DHT22;38934;52.690;6.184;2022-10-15T16:19:17;14.60;99.90
53053;DHT22;38934;52.690;6.184;2022-10-15T16:21:42;14.60;99.90
53053;DHT22;38934;52.690;6.184;2022-10-15T16:24:08;14.50;99.90
53053;DHT22;38934;52.690;6.184;2022-10-15T16:26:34;14.50;99.90
53053;DHT22;38934;52.690;6.184;2022-10-15T16:28:59;14.40;99.90
53053;DHT22;38934;52.690;6.184;2022-10-15T16:31:25;14.30;99.90
53053;DHT22;38934;52.690;6.184;2022-10-15T16:33:53;14.30;99.90
53053;DHT22;38934;52.690;6.184;2022-10-15T16:36:18;14.70;99.90
53053;DHT22;38934;52.690;6.184;2022-10-15T16:38:53;14.10;99.90
53053;DHT22;38934;52.690;6.184;2022-10-15T16:41:20;14.10;99.90
53053;DHT22;38934;52.690;6.184;2022-10-15T16:43:45;14.00;99.90
53053;DHT22;38934;52.690;6.184;2022-10-15T16:46:15;13.90;99.90
53053;DHT22;38934;52.690;6.184;2022-10-15T16:48:41;13.90;99.90
53053;DHT22;38934;52.690;6.184;2022-10-15T16:51:08;13.90;99.90
53053;DHT22;38934;52.690;6.184;2022-10-15T16:53:35;13.90;99.90
53053;DHT22;38934;52.690;6.184;2022-10-15T16:56:05;13.90;99.90
53053;DHT22;38934;52.690;6.184;2022-10-15T16:58:32;13.90;99.90
53053;DHT22;38934;52.690;6.184;2022-10-15T17:01:02;13.90;99.90
53053;DHT22;38934;52.690;6.184;2022-10-15T17:03:28;13.80;99.90
53053;DHT22;38934;52.690;6.184;2022-10-15T17:05:58;14.10;99.90
53053;DHT22;38934;52.690;6.184;2022-10-15T17:08:25;13.60;99.90
53053;DHT22;38934;52.690;6.184;2022-10-15T17:10:52;13.60;99.90
53053;DHT22;38934;52.690;6.184;2022-10-15T17:13:17;13.50;99.90
53053;DHT22;38934;52.690;6.184;2022-10-15T17:15:44;13.80;99.90
53053;DHT22;38934;52.690;6.184;2022-10-15T17:18:10;13.40;99.90
53053;DHT22;38934;52.690;6.184;2022-10-15T17:20:46;14.00;99.90
53053;DHT22;38934;52.690;6.184;2022-10-15T17:23:13;13.30;99.90
53053;DHT22;38934;52.690;6.184;2022-10-15T17:25:47;13.20;99.90
53053;DHT22;38934;52.690;6.184;2022-10-15T17:28:12;12.20;99.90
53053;DHT22;38934;52.690;6.184;2022-10-15T17:30:38;13.10;99.90
53053;DHT22;38934;52.690;6.184;2022-10-15T17:33:03;13.00;99.90
53053;DHT22;38934;52.690;6.184;2022-10-15T17:35:34;13.00;99.90
53053;DHT22;38934;52.690;6.184;2022-10-15T17:38:00;12.90;99.90
53053;DHT22;38934;52.690;6.184;2022-10-15T17:40:25;12.90;99.90
53053;DHT22;38934;52.690;6.184;2022-10-15T17:42:51;12.80;99.90
53053;DHT22;38934;52.690;6.184;2022-10-15T17:45:16;13.30;99.90
53053;DHT22;38934;52.690;6.184;2022-10-15T17:47:42;12.80;99.90
53053;DHT22;38934;52.690;6.184;2022-10-15T17:50:07;12.70;99.90
53053;DHT22;38934;52.690;6.184;2022-10-15T17:52:33;12.70;99.90
53053;DHT22;38934;52.690;6.184;2022-10-15T17:54:58;12.70;99.90
53053;DHT22;38934;52.690;6.184;2022-10-15T17:57:24;12.60;99.90
53053;DHT22;38934;52.690;6.184;2022-10-15T17:59:49;12.60;99.90
53053;DHT22;38934;52.690;6.184;2022-10-15T18:02:15;12.50;99.90
53053;DHT22;38934;52.690;6.184;2022-10-15T18:04:41;12.50;99.90
53053;DHT22;38934;52.690;6.184;2022-10-15T18:07:06;12.50;99.90
53053;DHT22;38934;52.690;6.184;2022-10-15T18:09:32;12.50;99.90
53053;DHT22;38934;52.690;6.184;2022-10-15T18:11:58;12.50;99.90
53053;DHT22;38934;52.690;6.184;2022-10-15T18:14:24;13.30;99.90
53053;DHT22;38934;52.690;6.184;2022-10-15T18:16:50;12.50;99.90
53053;DHT22;38934;52.690;6.184;2022-10-15T18:19:15;12.40;99.90
53053;DHT22;38934;52.690;6.184;2022-10-15T18:21:41;12.50;99.90
53053;DHT22;38934;52.690;6.184;2022-10-15T18:24:08;12.40;99.90
53053;DHT22;38934;52.690;6.184;2022-10-15T18:26:33;12.40;99.90
53053;DHT22;38934;52.690;6.184;2022-10-15T18:29:00;12.40;99.90
53053;DHT22;38934;52.690;6.184;2022-10-15T18:31:25;12.40;99.90
53053;DHT22;38934;52.690;6.184;2022-10-15T18:33:52;12.40;99.90
53053;DHT22;38934;52.690;6.184;2022-10-15T18:36:22;13.30;99.90
53053;DHT22;38934;52.690;6.184;2022-10-15T18:38:48;12.40;99.90
53053;DHT22;38934;52.690;6.184;2022-10-15T18:41:18;12.40;99.90
53053;DHT22;38934;52.690;6.184;2022-10-15T18:43:51;12.40;99.90
53053;DHT22;38934;52.690;6.184;2022-10-15T18:46:17;12.40;99.90
53053;DHT22;38934;52.690;6.184;2022-10-15T18:48:43;12.40;99.90
53053;DHT22;38934;52.690;6.184;2022-10-15T18:51:08;13.50;99.90
53053;DHT22;38934;52.690;6.184;2022-10-15T18:53:37;12.40;99.90
53053;DHT22;38934;52.690;6.184;2022-10-15T18:56:03;12.40;99.90
53053;DHT22;38934;52.690;6.184;2022-10-15T18:58:29;12.40;99.90
53053;DHT22;38934;52.690;6.184;2022-10-15T19:00:54;12.40;99.90
53053;DHT22;38934;52.690;6.184;2022-10-15T19:03:20;12.40;99.90